Time;durP1;ratioP1;P1;durP2;ratioP2;P2;SDS_P1;SDS_P2;PMS_P1;PMS_P2;Temp;Humidity;BMP_temperature;BMP_pressure;BME280_temperature;BME280_humidity;BME280_pressure;Samples;Min_cycle;Max_cycle;Signal;HPM_P1;HPM_P2
2023/08/18 00:00:50;;;;;;;26.23;12.32;;;24.30;99.90;;;;;;5149626;28;20042;-78
2023/08/18 00:03:21;;;;;;;18.80;11.82;;;24.20;99.90;;;;;;5167048;28;20383;-85
2023/08/18 00:05:51;;;;;;;20.75;11.77;;;24.30;99.90;;;;;;5167012;28;20034;-89
2023/08/18 00:08:22;;;;;;;21.10;12.00;;;24.20;99.90;;;;;;5149093;28;20022;-77
2023/08/18 00:10:53;;;;;;;22.92;12.32;;;24.20;99.90;;;;;;5165643;28;20390;-77
2023/08/18 00:13:24;;;;;;;19.15;12.13;;;24.20;99.90;;;;;;5149467;28;20049;-76
2023/08/18 00:15:55;;;;;;;18.15;11.82;;;24.20;99.90;;;;;;5149600;28;20037;-76
2023/08/18 00:18:26;;;;;;;18.33;11.50;;;24.20;99.90;;;;;;5149181;28;20034;-77
2023/08/18 00:20:57;;;;;;;23.95;11.77;;;24.30;99.90;;;;;;5166701;28;20479;-77
2023/08/18 00:23:28;;;;;;;22.60;12.00;;;24.30;99.90;;;;;;5166695;28;20101;-89
2023/08/18 00:25:59;;;;;;;19.40;12.05;;;24.30;99.90;;;;;;5166720;28;20493;-89
2023/08/18 00:28:30;;;;;;;23.13;12.65;;;24.30;99.90;;;;;;5166945;28;20026;-76
2023/08/18 00:31:00;;;;;;;26.92;12.18;;;24.30;99.90;;;;;;5165327;28;20395;-76
2023/08/18 00:33:31;;;;;;;18.75;12.10;;;24.20;99.90;;;;;;5166135;28;20045;-88
2023/08/18 00:36:03;;;;;;;25.73;12.15;;;24.30;99.90;;;;;;5165177;28;20096;-76
2023/08/18 00:38:34;;;;;;;21.75;12.63;;;24.40;99.90;;;;;;5166693;28;20025;-80
2023/08/18 00:41:05;;;;;;;21.13;11.70;;;24.20;99.90;;;;;;5166211;28;20030;-77
2023/08/18 00:43:35;;;;;;;27.77;12.00;;;24.30;99.90;;;;;;5166271;28;20095;-83
2023/08/18 00:46:07;;;;;;;17.52;11.88;;;24.40;99.90;;;;;;5166363;28;20058;-79
2023/08/18 00:48:38;;;;;;;19.95;11.88;;;24.30;99.90;;;;;;5166397;28;20505;-78
2023/08/18 00:51:10;;;;;;;24.27;12.32;;;24.30;99.90;;;;;;5148928;28;20027;-77
2023/08/18 00:53:42;;;;;;;24.15;11.50;;;24.40;99.90;;;;;;5166334;28;20033;-76
2023/08/18 00:56:14;;;;;;;17.48;11.50;;;24.40;99.90;;;;;;5148876;28;20415;-76
2023/08/18 00:58:45;;;;;;;22.23;11.82;;;24.30;99.90;;;;;;5148612;28;20045;-78
2023/08/18 01:01:16;;;;;;;18.58;11.20;;;24.40;99.90;;;;;;5148779;28;20046;-84
2023/08/18 01:03:47;;;;;;;23.92;12.30;;;24.30;99.90;;;;;;5166218;28;20038;-77
2023/08/18 01:06:18;;;;;;;19.88;11.48;;;24.30;99.90;;;;;;5149133;28;20443;-77
2023/08/18 01:08:50;;;;;;;20.77;11.45;;;24.30;99.90;;;;;;5166141;28;20054;-89
2023/08/18 01:11:48;;;;;;;24.25;12.20;;;24.30;99.90;;;;;;5166040;28;20041;-77
2023/08/18 01:14:22;;;;;;;26.30;12.13;;;24.30;99.90;;;;;;5165958;28;20030;-78
2023/08/18 01:17:01;;;;;;;21.80;11.40;;;24.30;99.90;;;;;;5149173;28;20031;-77
2023/08/18 01:19:34;;;;;;;27.50;11.57;;;24.30;99.90;;;;;;5148439;28;20054;-88
2023/08/18 01:22:11;;;;;;;20.75;11.43;;;24.30;99.90;;;;;;5166551;28;20057;-76
2023/08/18 01:24:42;;;;;;;19.60;10.40;;;24.40;99.90;;;;;;5148797;28;20418;-80
2023/08/18 01:27:13;;;;;;;24.58;11.38;;;24.40;99.90;;;;;;5166059;28;20088;-78
2023/08/18 01:29:44;;;;;;;21.80;11.88;;;24.30;99.90;;;;;;5165973;28;20482;-76
2023/08/18 01:32:16;;;;;;;23.05;12.18;;;24.20;99.90;;;;;;5165953;28;20163;-78
2023/08/18 01:34:50;;;;;;;21.23;11.15;;;24.30;99.90;;;;;;5148425;28;20138;-80
2023/08/18 01:37:22;;;;;;;16.85;10.82;;;24.30;99.90;;;;;;5165971;28;20682;-77
2023/08/18 01:39:55;;;;;;;21.02;11.57;;;24.30;99.90;;;;;;5165563;28;20046;-83
2023/08/18 01:42:27;;;;;;;24.05;11.52;;;24.40;99.90;;;;;;5148369;28;20085;-77
2023/08/18 01:45:02;;;;;;;17.10;10.63;;;24.40;99.90;;;;;;5165492;28;20394;-76
2023/08/18 01:47:33;;;;;;;18.08;11.20;;;24.30;99.90;;;;;;5169490;28;20651;-77
2023/08/18 01:50:05;;;;;;;15.80;11.52;;;24.40;99.90;;;;;;5169416;28;20050;-76
2023/08/18 01:52:36;;;;;;;19.10;11.43;;;24.30;99.90;;;;;;5169562;28;20430;-76
2023/08/18 01:55:07;;;;;;;22.48;11.75;;;24.20;99.90;;;;;;5151996;28;20023;-77
2023/08/18 01:57:38;;;;;;;22.10;11.20;;;24.20;99.90;;;;;;5152049;28;20034;-78
2023/08/18 02:00:09;;;;;;;20.85;11.02;;;24.30;99.90;;;;;;5151955;28;20022;-77
2023/08/18 02:02:40;;;;;;;21.02;11.68;;;24.40;99.90;;;;;;5169294;28;20090;-76
2023/08/18 02:05:10;;;;;;;17.98;10.85;;;24.30;99.90;;;;;;5169319;28;20426;-89
2023/08/18 02:07:41;;;;;;;20.75;11.52;;;24.40;99.90;;;;;;5168875;28;20038;-88
2023/08/18 02:10:12;;;;;;;23.70;11.57;;;24.40;99.90;;;;;;5169258;28;20022;-84
2023/08/18 02:12:43;;;;;;;19.15;10.38;;;24.30;99.90;;;;;;5151867;28;20507;-76
2023/08/18 02:15:14;;;;;;;18.95;11.75;;;24.40;99.90;;;;;;5169146;28;20805;-88
2023/08/18 02:17:44;;;;;;;21.45;12.27;;;24.40;99.90;;;;;;5168996;28;20076;-79
2023/08/18 02:20:15;;;;;;;23.15;11.13;;;24.40;99.90;;;;;;5168630;28;20042;-85
2023/08/18 02:22:46;;;;;;;17.33;10.82;;;24.30;99.90;;;;;;5169491;28;20038;-78
2023/08/18 02:25:17;;;;;;;19.67;11.27;;;24.40;99.90;;;;;;5169004;28;20025;-77
2023/08/18 02:27:48;;;;;;;19.70;11.40;;;24.30;99.90;;;;;;5168784;28;20100;-77
2023/08/18 02:30:19;;;;;;;27.00;11.02;;;24.40;99.90;;;;;;5168855;28;20022;-76
2023/08/18 02:32:50;;;;;;;19.58;10.45;;;24.40;99.90;;;;;;5168849;28;20500;-85
2023/08/18 02:35:22;;;;;;;20.23;10.63;;;24.40;99.90;;;;;;5151688;28;20054;-77
2023/08/18 02:37:52;;;;;;;23.45;11.32;;;24.50;99.90;;;;;;5168827;28;20379;-76
2023/08/18 02:40:23;;;;;;;23.98;10.88;;;24.40;99.90;;;;;;5168232;28;20025;-77
2023/08/18 02:42:54;;;;;;;21.98;11.10;;;24.40;99.90;;;;;;5169011;28;20109;-77
2023/08/18 02:45:25;;;;;;;19.95;10.93;;;24.40;99.90;;;;;;5151001;28;20018;-76
2023/08/18 02:47:57;;;;;;;22.90;10.77;;;24.50;99.90;;;;;;5168330;28;20045;-76
2023/08/18 02:50:28;;;;;;;15.75;10.35;;;24.40;99.90;;;;;;5167135;28;20026;-82
2023/08/18 02:53:03;;;;;;;21.58;10.25;;;24.40;99.90;;;;;;5151035;28;20040;-77
2023/08/18 02:55:34;;;;;;;16.65;10.38;;;24.30;99.90;;;;;;5167071;28;20026;-87
2023/08/18 02:58:05;;;;;;;18.88;10.55;;;24.50;99.90;;;;;;5168187;28;20058;-76
2023/08/18 03:00:36;;;;;;;20.83;10.70;;;24.40;99.90;;;;;;5167800;28;20132;-84
2023/08/18 03:03:07;;;;;;;20.05;11.27;;;24.50;99.90;;;;;;5150444;28;20543;-88
2023/08/18 03:05:38;;;;;;;21.95;11.45;;;24.40;99.90;;;;;;5168351;28;20374;-76
2023/08/18 03:08:10;;;;;;;17.40;11.07;;;24.30;99.90;;;;;;5167785;28;20030;-76
2023/08/18 03:10:41;;;;;;;20.27;11.30;;;24.40;99.90;;;;;;5168084;28;20026;-77
2023/08/18 03:13:12;;;;;;;17.63;10.10;;;24.40;99.90;;;;;;5168359;28;20498;-88
2023/08/18 03:15:43;;;;;;;16.65;11.13;;;24.40;99.90;;;;;;5168048;28;20074;-77
2023/08/18 03:18:14;;;;;;;20.90;10.43;;;24.40;99.90;;;;;;5167464;28;20026;-82
2023/08/18 03:20:49;;;;;;;17.30;9.85;;;24.40;99.90;;;;;;5135718;28;20483;-82
2023/08/18 03:23:20;;;;;;;20.67;11.07;;;24.40;99.90;;;;;;5147746;28;20031;-77
2023/08/18 03:25:51;;;;;;;21.42;11.55;;;24.40;99.90;;;;;;5147674;28;20395;-78
2023/08/18 03:28:22;;;;;;;20.60;10.57;;;24.40;99.90;;;;;;5147638;28;20027;-77
2023/08/18 03:30:57;;;;;;;21.67;10.90;;;24.40;99.90;;;;;;5147633;28;20391;-76
2023/08/18 03:33:28;;;;;;;19.85;11.40;;;24.50;99.90;;;;;;5147971;28;20027;-82
2023/08/18 03:35:59;;;;;;;20.00;11.43;;;24.40;99.90;;;;;;5130079;28;20150;-77
2023/08/18 03:38:30;;;;;;;19.52;10.98;;;24.50;99.90;;;;;;5147337;28;20026;-77
2023/08/18 03:41:06;;;;;;;15.80;9.70;;;24.50;99.90;;;;;;5129885;28;20031;-80
2023/08/18 03:43:37;;;;;;;21.20;10.60;;;24.50;99.90;;;;;;5147007;28;20097;-88
2023/08/18 03:46:25;;;;;;;18.88;10.00;;;24.50;99.90;;;;;;5147227;28;20035;-77
2023/08/18 03:48:56;;;;;;;15.32;10.55;;;24.60;99.90;;;;;;5147096;28;20054;-80
2023/08/18 03:51:27;;;;;;;16.83;10.50;;;24.50;99.90;;;;;;5147190;28;20031;-76
2023/08/18 03:53:58;;;;;;;19.92;9.82;;;24.50;99.90;;;;;;5129752;28;20027;-76
2023/08/18 03:56:28;;;;;;;20.02;10.68;;;24.50;99.90;;;;;;5147023;28;20030;-77
2023/08/18 03:58:59;;;;;;;19.58;9.85;;;24.60;99.90;;;;;;5129353;28;20018;-76
2023/08/18 04:01:31;;;;;;;17.25;10.02;;;24.60;99.90;;;;;;5146596;28;20551;-86
2023/08/18 04:04:03;;;;;;;26.25;11.13;;;24.60;99.90;;;;;;5129845;28;20487;-88
2023/08/18 04:06:34;;;;;;;18.77;10.30;;;24.70;99.90;;;;;;5129437;28;20053;-77
2023/08/18 04:09:17;;;;;;;17.55;10.55;;;24.80;99.90;;;;;;5145783;28;20031;-76
2023/08/18 04:11:48;;;;;;;16.13;9.82;;;24.80;99.90;;;;;;5147063;28;20027;-76
2023/08/18 04:14:20;;;;;;;16.40;9.43;;;24.80;99.90;;;;;;5146843;28;20476;-89
2023/08/18 04:16:51;;;;;;;15.52;9.50;;;24.90;99.90;;;;;;5129434;28;20121;-76
2023/08/18 04:19:22;;;;;;;19.75;10.15;;;25.00;99.90;;;;;;5149683;28;20113;-77
2023/08/18 04:21:52;;;;;;;17.67;9.52;;;25.00;99.90;;;;;;5167220;28;20390;-77
2023/08/18 04:24:23;;;;;;;19.35;9.98;;;25.10;99.90;;;;;;5166613;28;20475;-76
2023/08/18 04:27:00;;;;;;;18.23;9.32;;;25.10;99.90;;;;;;5149127;28;20057;-78
2023/08/18 04:29:31;;;;;;;21.98;9.25;;;25.10;99.90;;;;;;5166538;28;20022;-84
2023/08/18 04:32:02;;;;;;;17.40;9.45;;;25.20;99.90;;;;;;5166395;28;20037;-77
2023/08/18 04:34:33;;;;;;;18.20;10.00;;;25.30;99.90;;;;;;5166484;28;20022;-76
2023/08/18 04:37:04;;;;;;;14.05;8.93;;;25.30;99.90;;;;;;5149010;28;20030;-77
2023/08/18 04:39:35;;;;;;;18.40;9.52;;;25.30;99.90;;;;;;5166494;28;20027;-78
2023/08/18 04:42:06;;;;;;;17.60;9.15;;;25.40;99.90;;;;;;5166032;28;20116;-86
2023/08/18 04:44:37;;;;;;;17.13;8.88;;;25.50;99.90;;;;;;5166911;28;20033;-79
2023/08/18 04:47:07;;;;;;;18.33;9.23;;;25.50;99.90;;;;;;5166621;28;20466;-82
2023/08/18 04:49:38;;;;;;;20.88;9.35;;;25.50;99.90;;;;;;5166311;28;20026;-88
2023/08/18 04:52:10;;;;;;;23.20;9.07;;;25.50;99.90;;;;;;5166331;28;20442;-89
2023/08/18 04:54:41;;;;;;;22.42;9.40;;;25.60;99.90;;;;;;5166845;28;20054;-89
2023/08/18 04:57:12;;;;;;;15.52;9.43;;;25.60;99.90;;;;;;5148579;28;20065;-77
2023/08/18 04:59:43;;;;;;;18.20;9.18;;;25.60;99.90;;;;;;5166385;28;20062;-82
2023/08/18 05:02:14;;;;;;;17.45;9.45;;;25.70;99.90;;;;;;5166338;28;20046;-83
2023/08/18 05:04:45;;;;;;;15.80;9.07;;;25.70;99.90;;;;;;5166149;28;20019;-81
2023/08/18 05:07:16;;;;;;;15.65;8.55;;;25.70;99.90;;;;;;5166196;28;20026;-78
2023/08/18 05:09:46;;;;;;;19.60;9.10;;;25.80;99.90;;;;;;5148729;28;20077;-86
2023/08/18 05:12:20;;;;;;;21.38;9.45;;;25.80;99.90;;;;;;5165720;28;20030;-88
2023/08/18 05:14:50;;;;;;;18.30;8.90;;;25.80;99.90;;;;;;5165870;28;20028;-78
2023/08/18 05:17:21;;;;;;;15.68;8.90;;;26.00;99.90;;;;;;5147181;28;20026;-77
2023/08/18 05:19:52;;;;;;;23.83;9.13;;;25.90;99.90;;;;;;5132059;28;20480;-88
2023/08/18 05:22:23;;;;;;;18.40;9.60;;;25.90;99.90;;;;;;5150055;28;20125;-85
2023/08/18 05:24:55;;;;;;;21.67;9.88;;;26.00;99.90;;;;;;5132613;28;20043;-89
2023/08/18 05:27:27;;;;;;;15.07;8.75;;;26.10;99.90;;;;;;5136456;28;20026;-77
2023/08/18 05:29:59;;;;;;;14.60;8.85;;;26.20;99.90;;;;;;5149825;28;20125;-78
2023/08/18 05:32:30;;;;;;;18.27;8.35;;;26.10;99.90;;;;;;5149799;28;20081;-79
2023/08/18 05:35:01;;;;;;;19.60;8.10;;;26.10;99.90;;;;;;5132552;28;20023;-80
2023/08/18 05:37:32;;;;;;;18.13;8.15;;;26.30;99.90;;;;;;5132236;28;20026;-76
2023/08/18 05:40:03;;;;;;;17.45;7.90;;;26.40;99.90;;;;;;5149387;28;20038;-86
2023/08/18 05:42:34;;;;;;;18.83;7.78;;;26.40;99.90;;;;;;5132206;28;20039;-78
2023/08/18 05:45:06;;;;;;;14.70;7.90;;;26.50;99.90;;;;;;5149579;28;20027;-80
2023/08/18 05:47:37;;;;;;;19.60;8.05;;;26.60;99.90;;;;;;5135049;28;20109;-80
2023/08/18 05:50:11;;;;;;;16.13;7.03;;;26.60;99.90;;;;;;5128283;29;20055;-78
2023/08/18 05:52:42;;;;;;;13.63;7.13;;;26.60;99.90;;;;;;5128277;29;20028;-78
2023/08/18 05:55:12;;;;;;;14.68;7.75;;;26.60;99.90;;;;;;5142693;28;20037;-81
2023/08/18 05:57:44;;;;;;;14.52;6.97;;;26.80;99.90;;;;;;5147488;28;20026;-79
2023/08/18 06:00:16;;;;;;;12.63;7.20;;;26.70;99.90;;;;;;5140871;28;20063;-83
2023/08/18 06:02:47;;;;;;;16.95;6.68;;;26.70;99.90;;;;;;5148233;28;20040;-77
2023/08/18 06:05:17;;;;;;;18.08;7.85;;;26.80;99.90;;;;;;5148303;28;20046;-85
2023/08/18 06:07:49;;;;;;;20.85;7.30;;;26.80;99.90;;;;;;5141223;28;20077;-76
2023/08/18 06:10:20;;;;;;;15.90;7.75;;;26.90;99.90;;;;;;5148600;28;20027;-76
2023/08/18 06:12:51;;;;;;;12.25;6.90;;;26.80;99.90;;;;;;5148581;28;20061;-76
2023/08/18 06:15:23;;;;;;;16.02;7.38;;;26.90;99.90;;;;;;5148458;28;20023;-76
2023/08/18 06:17:54;;;;;;;15.32;6.95;;;26.80;99.90;;;;;;5130622;28;20031;-76
2023/08/18 06:20:25;;;;;;;13.98;7.00;;;27.00;99.90;;;;;;5156328;28;20045;-76
2023/08/18 06:22:56;;;;;;;13.30;7.13;;;27.10;99.90;;;;;;5168687;28;20122;-77
2023/08/18 06:25:27;;;;;;;13.10;6.53;;;27.20;99.90;;;;;;5167915;28;20109;-76
2023/08/18 06:27:58;;;;;;;19.35;6.93;;;27.10;99.90;;;;;;5168051;28;20033;-76
2023/08/18 06:30:29;;;;;;;13.23;7.05;;;27.20;99.90;;;;;;5166284;28;20061;-81
2023/08/18 06:33:00;;;;;;;10.70;6.82;;;27.10;99.90;;;;;;5167602;28;20030;-89
2023/08/18 06:35:31;;;;;;;12.02;6.90;;;27.20;99.90;;;;;;5168518;28;20033;-77
2023/08/18 06:38:02;;;;;;;18.73;7.55;;;27.20;99.90;;;;;;5163209;28;20034;-80
2023/08/18 06:40:32;;;;;;;15.98;6.57;;;27.30;99.90;;;;;;5150818;28;20035;-79
2023/08/18 06:43:03;;;;;;;17.45;6.38;;;27.40;99.90;;;;;;5168152;28;20035;-81
2023/08/18 06:45:34;;;;;;;15.95;6.90;;;27.30;99.90;;;;;;5166617;28;20026;-79
2023/08/18 06:48:05;;;;;;;13.23;7.05;;;27.30;99.90;;;;;;5168314;28;20027;-84
2023/08/18 06:50:36;;;;;;;12.75;6.55;;;27.50;99.90;;;;;;5163344;28;20030;-79
2023/08/18 06:53:07;;;;;;;12.27;6.55;;;27.50;99.90;;;;;;5153690;28;20398;-79
2023/08/18 06:55:38;;;;;;;13.80;6.68;;;27.50;99.90;;;;;;5168676;28;20022;-78
2023/08/18 06:58:12;;;;;;;16.88;7.57;;;27.50;99.90;;;;;;5168239;28;20765;-77
2023/08/18 07:00:43;;;;;;;12.85;6.72;;;27.70;99.90;;;;;;5167872;28;20033;-77
2023/08/18 07:03:13;;;;;;;16.15;6.70;;;27.60;99.90;;;;;;5166508;28;20482;-77
2023/08/18 07:05:45;;;;;;;16.10;6.90;;;27.70;99.90;;;;;;5167585;28;20034;-77
2023/08/18 07:08:16;;;;;;;16.13;7.05;;;27.80;99.90;;;;;;5166641;28;20032;-76
2023/08/18 07:10:49;;;;;;;14.60;6.97;;;27.90;99.90;;;;;;5167888;28;20022;-76
2023/08/18 07:13:21;;;;;;;13.65;6.55;;;28.00;99.90;;;;;;5166723;28;20033;-81
2023/08/18 07:15:52;;;;;;;11.85;6.45;;;27.90;99.90;;;;;;5167903;28;20049;-77
2023/08/18 07:18:23;;;;;;;13.27;6.72;;;28.10;99.90;;;;;;5167436;28;20034;-76
2023/08/18 07:20:56;;;;;;;12.32;6.60;;;28.00;99.90;;;;;;5168433;28;20058;-76
2023/08/18 07:23:26;;;;;;;57.10;9.10;;;28.00;99.90;;;;;;5169992;28;20156;-85
2023/08/18 07:25:58;;;;;;;35.63;7.35;;;28.20;99.90;;;;;;5166246;28;20453;-76
2023/08/18 07:28:29;;;;;;;14.30;6.18;;;28.10;99.90;;;;;;5166272;28;20475;-79
2023/08/18 07:31:04;;;;;;;15.13;6.35;;;28.10;99.90;;;;;;5172046;28;20023;-81
2023/08/18 07:33:37;;;;;;;9.50;5.80;;;28.10;99.90;;;;;;5166061;28;20034;-82
2023/08/18 07:36:09;;;;;;;12.98;5.55;;;28.30;99.90;;;;;;5167041;28;20091;-83
2023/08/18 07:38:39;;;;;;;17.00;6.05;;;28.40;99.90;;;;;;5167201;28;20080;-78
2023/08/18 07:41:10;;;;;;;11.35;5.70;;;28.30;99.90;;;;;;5149447;28;20031;-85
2023/08/18 07:43:41;;;;;;;11.73;6.55;;;28.40;99.90;;;;;;5167679;28;20114;-80
2023/08/18 07:46:12;;;;;;;13.85;5.35;;;28.30;99.90;;;;;;5167349;28;20105;-78
2023/08/18 07:48:44;;;;;;;11.65;5.78;;;28.40;99.90;;;;;;5149188;28;20034;-78
2023/08/18 07:51:15;;;;;;;11.02;5.47;;;28.40;99.90;;;;;;5149728;28;20054;-83
2023/08/18 07:53:46;;;;;;;11.00;5.95;;;28.50;99.90;;;;;;5167527;28;20023;-83
2023/08/18 07:56:17;;;;;;;14.68;6.40;;;28.70;99.90;;;;;;5175533;28;20556;-79
2023/08/18 07:58:48;;;;;;;16.58;6.57;;;28.70;99.90;;;;;;5169682;28;20110;-80
2023/08/18 08:01:19;;;;;;;16.58;6.43;;;28.80;99.90;;;;;;5169661;28;20036;-78
2023/08/18 08:03:50;;;;;;;15.35;6.82;;;28.80;99.90;;;;;;5186998;28;20034;-79
2023/08/18 08:06:21;;;;;;;13.60;6.45;;;28.90;99.90;;;;;;5169547;28;20025;-78
2023/08/18 08:08:52;;;;;;;10.82;6.35;;;28.80;99.90;;;;;;5187175;28;20033;-78
2023/08/18 08:11:23;;;;;;;15.77;7.53;;;28.90;99.90;;;;;;5187103;28;20026;-78
2023/08/18 08:13:53;;;;;;;14.88;7.20;;;28.80;99.90;;;;;;5159495;28;20443;-77
2023/08/18 08:16:24;;;;;;;12.80;6.80;;;29.10;99.90;;;;;;5148857;28;20388;-77
2023/08/18 08:19:09;;;;;;;13.27;7.53;;;29.00;99.90;;;;;;5166577;28;20113;-77
2023/08/18 08:21:40;;;;;;;17.08;6.47;;;29.00;99.90;;;;;;5149002;28;20553;-78
2023/08/18 08:24:11;;;;;;;16.58;6.70;;;29.00;99.90;;;;;;5148726;28;20382;-79
2023/08/18 08:26:43;;;;;;;15.85;6.20;;;29.20;99.90;;;;;;5149016;28;20026;-78
2023/08/18 08:29:14;;;;;;;11.95;6.13;;;29.10;99.90;;;;;;5149105;28;20028;-78
2023/08/18 08:31:45;;;;;;;10.73;5.50;;;29.00;99.90;;;;;;5166524;28;20390;-83
2023/08/18 08:34:16;;;;;;;13.18;5.70;;;29.00;99.90;;;;;;5149172;28;20022;-80
2023/08/18 08:36:46;;;;;;;9.57;5.65;;;29.10;99.90;;;;;;5166549;28;20113;-87
2023/08/18 08:39:17;;;;;;;17.25;5.88;;;29.00;99.90;;;;;;5148718;28;20048;-78
2023/08/18 08:41:48;;;;;;;14.10;6.13;;;29.20;99.90;;;;;;5166422;28;20442;-79
2023/08/18 08:44:19;;;;;;;13.93;5.63;;;29.20;99.90;;;;;;5148833;28;20026;-85
2023/08/18 08:46:51;;;;;;;17.80;5.80;;;29.20;99.90;;;;;;5148791;28;20026;-81
2023/08/18 08:49:25;;;;;;;12.73;5.47;;;29.20;99.90;;;;;;5148637;28;20400;-79
2023/08/18 08:52:02;;;;;;;14.82;6.10;;;29.30;99.90;;;;;;5165974;28;20081;-86
2023/08/18 08:54:46;;;;;;;11.95;6.45;;;29.10;99.90;;;;;;5165974;28;20026;-89
2023/08/18 08:57:21;;;;;;;13.55;6.15;;;29.30;99.90;;;;;;5139217;28;20031;-91
2023/08/18 08:59:52;;;;;;;9.90;5.45;;;29.40;99.90;;;;;;5146910;28;20110;-78
2023/08/18 09:02:23;;;;;;;12.52;6.43;;;29.40;99.90;;;;;;5165513;28;20031;-91
2023/08/18 09:04:53;;;;;;;11.40;6.40;;;29.30;99.90;;;;;;5166898;28;20085;-89
2023/08/18 09:07:24;;;;;;;11.43;6.03;;;29.40;99.90;;;;;;5166249;28;20030;-90
2023/08/18 09:09:56;;;;;;;18.08;5.88;;;29.10;99.90;;;;;;5166470;28;20056;-81
2023/08/18 09:12:28;;;;;;;15.00;5.75;;;29.20;99.90;;;;;;5165947;28;20105;-80
2023/08/18 09:14:59;;;;;;;14.00;5.97;;;29.40;99.90;;;;;;5165986;28;20018;-77
2023/08/18 09:17:30;;;;;;;13.45;6.22;;;29.30;99.90;;;;;;5148227;28;20089;-79
2023/08/18 09:20:00;;;;;;;12.60;6.13;;;29.40;99.90;;;;;;5165338;28;20049;-78
2023/08/18 09:22:32;;;;;;;25.95;6.75;;;29.50;99.90;;;;;;5148284;28;20074;-78
2023/08/18 09:25:03;;;;;;;12.15;6.38;;;29.40;99.90;;;;;;5147781;28;20022;-78
2023/08/18 09:27:34;;;;;;;12.25;6.50;;;29.50;99.90;;;;;;5148157;28;20054;-78
2023/08/18 09:30:05;;;;;;;17.55;7.45;;;;;;;;;;5165054;28;20018;-77
2023/08/18 09:32:37;;;;;;;20.27;7.35;;;;;;;;;;5164540;28;20058;-76
2023/08/18 09:35:12;;;;;;;12.48;6.28;;;29.50;99.90;;;;;;5164777;28;20034;-80
2023/08/18 09:37:42;;;;;;;15.77;7.57;;;29.50;99.90;;;;;;5165224;28;20023;-79
2023/08/18 09:40:13;;;;;;;12.05;6.13;;;29.40;99.90;;;;;;5164872;28;21292;-79
2023/08/18 09:42:44;;;;;;;12.80;6.20;;;29.50;99.90;;;;;;5164892;28;20046;-78
2023/08/18 09:45:15;;;;;;;14.70;5.75;;;29.80;99.90;;;;;;5164476;28;20486;-79
2023/08/18 09:47:49;;;;;;;15.57;6.38;;;29.80;99.90;;;;;;5164315;28;20441;-75
2023/08/18 09:50:24;;;;;;;19.17;5.32;;;29.80;99.90;;;;;;5147343;28;20450;-75
2023/08/18 09:52:57;;;;;;;11.23;5.43;;;29.80;99.90;;;;;;5161334;28;20470;-74
2023/08/18 09:55:44;;;;;;;15.35;6.05;;;29.90;99.90;;;;;;5163995;28;20030;-75
2023/08/18 09:58:44;;;;;;;15.95;5.60;;;29.90;99.90;;;;;;5164888;28;20026;-77
2023/08/18 10:01:17;;;;;;;14.07;5.57;;;29.90;99.90;;;;;;5163890;28;20043;-77
2023/08/18 10:03:48;;;;;;;16.15;5.93;;;30.00;99.90;;;;;;5145248;28;20513;-79
2023/08/18 10:06:20;;;;;;;11.77;5.22;;;30.20;99.90;;;;;;5143775;28;20045;-76
2023/08/18 10:08:53;;;;;;;14.50;5.22;;;30.00;99.90;;;;;;5166811;28;20030;-75
2023/08/18 10:11:24;;;;;;;9.27;5.10;;;29.60;99.90;;;;;;5167718;28;20382;-77
2023/08/18 10:13:55;;;;;;;14.90;5.28;;;29.60;99.90;;;;;;5166649;28;20028;-75
2023/08/18 10:16:27;;;;;;;12.20;5.78;;;29.60;99.90;;;;;;5148946;28;20076;-78
2023/08/18 10:18:58;;;;;;;12.73;5.45;;;29.50;99.90;;;;;;5166686;28;20026;-79
2023/08/18 10:21:29;;;;;;;14.15;6.18;;;29.50;99.90;;;;;;5130108;28;20058;-83
2023/08/18 10:24:02;;;;;;;15.57;5.78;;;29.50;99.90;;;;;;5146675;28;20031;-78
2023/08/18 10:26:39;;;;;;;15.73;5.38;;;29.50;99.90;;;;;;5129336;28;20081;-75
2023/08/18 10:29:17;;;;;;;15.85;6.25;;;29.20;99.90;;;;;;5147560;28;20058;-75
2023/08/18 10:31:48;;;;;;;14.65;6.32;;;29.20;99.90;;;;;;5130434;28;20451;-76
2023/08/18 10:34:22;;;;;;;15.73;6.40;;;29.20;99.90;;;;;;5144569;28;20086;-79
2023/08/18 10:37:03;;;;;;;18.67;6.75;;;29.30;99.90;;;;;;5136232;28;20082;-76
2023/08/18 10:39:40;;;;;;;16.98;6.80;;;29.20;99.90;;;;;;5121642;28;20050;-78
2023/08/18 10:42:13;;;;;;;16.98;6.97;;;29.20;99.90;;;;;;5133064;28;20484;-75
2023/08/18 10:45:00;;;;;;;15.15;6.57;;;29.20;99.90;;;;;;5147152;28;20031;-78
2023/08/18 10:47:33;;;;;;;15.57;6.38;;;29.30;99.90;;;;;;5146669;28;20026;-75
2023/08/18 10:50:04;;;;;;;14.65;6.72;;;29.30;99.90;;;;;;5147020;28;20086;-76
2023/08/18 10:52:35;;;;;;;15.52;7.50;;;29.20;99.90;;;;;;5146799;28;20034;-75
2023/08/18 10:55:07;;;;;;;17.60;7.35;;;29.20;99.90;;;;;;5147328;28;20035;-79
2023/08/18 10:57:38;;;;;;;14.23;6.45;;;29.30;99.90;;;;;;5148571;28;20019;-75
2023/08/18 11:00:12;;;;;;;21.25;6.93;;;29.30;99.90;;;;;;5149598;28;20046;-76
2023/08/18 11:02:49;;;;;;;15.18;7.53;;;29.20;99.90;;;;;;5145790;28;20390;-77
2023/08/18 11:05:22;;;;;;;19.35;8.38;;;29.10;99.90;;;;;;5126987;29;20031;-79
2023/08/18 11:07:53;;;;;;;15.30;8.32;;;29.00;99.90;;;;;;5125992;29;20122;-75
2023/08/18 11:10:25;;;;;;;18.00;8.52;;;29.10;99.90;;;;;;5125862;29;20471;-79
2023/08/18 11:12:58;;;;;;;19.25;8.20;;;29.20;99.90;;;;;;5141252;28;20027;-83
2023/08/18 11:15:29;;;;;;;17.67;7.53;;;29.30;99.90;;;;;;5141257;28;20058;-78
2023/08/18 11:18:00;;;;;;;18.92;7.82;;;29.20;99.90;;;;;;5125629;28;20019;-76
2023/08/18 11:20:31;;;;;;;19.48;7.10;;;29.30;99.90;;;;;;5130500;28;20073;-77
2023/08/18 11:23:03;;;;;;;19.20;7.13;;;29.30;99.90;;;;;;5160469;28;20034;-79
2023/08/18 11:25:35;;;;;;;15.63;8.07;;;29.00;99.90;;;;;;5148888;28;20070;-78
2023/08/18 11:28:08;;;;;;;17.55;8.38;;;29.20;99.90;;;;;;5166470;28;20026;-77
2023/08/18 11:30:38;;;;;;;19.48;8.32;;;29.10;99.90;;;;;;5166584;28;20018;-79
2023/08/18 11:33:11;;;;;;;16.67;8.40;;;29.20;99.90;;;;;;5166368;28;20107;-77
2023/08/18 11:35:43;;;;;;;18.50;8.20;;;29.10;99.90;;;;;;5149193;28;20061;-77
2023/08/18 11:38:14;;;;;;;14.90;7.45;;;29.40;99.90;;;;;;5155392;28;20031;-78
2023/08/18 11:40:49;;;;;;;19.40;7.30;;;29.60;99.90;;;;;;5139695;28;20031;-78
2023/08/18 11:43:21;;;;;;;14.90;6.63;;;29.80;99.90;;;;;;5119235;28;20114;-78
2023/08/18 11:45:52;;;;;;;15.10;6.88;;;29.60;99.90;;;;;;5133809;28;20053;-77
2023/08/18 11:48:23;;;;;;;15.35;6.68;;;29.60;99.90;;;;;;5121585;28;20023;-76
2023/08/18 11:50:56;;;;;;;20.00;6.97;;;29.40;99.90;;;;;;5143852;28;20435;-78
2023/08/18 11:53:28;;;;;;;17.92;7.32;;;29.20;99.90;;;;;;5145949;28;20022;-77
2023/08/18 11:56:00;;;;;;;16.40;8.23;;;29.20;99.90;;;;;;5134621;28;20117;-76
2023/08/18 11:58:33;;;;;;;16.38;8.38;;;29.30;99.90;;;;;;5148715;28;20018;-76
2023/08/18 12:01:04;;;;;;;18.20;7.55;;;29.40;99.90;;;;;;5165651;28;20530;-78
2023/08/18 12:03:35;;;;;;;19.65;7.45;;;29.50;99.90;;;;;;5165732;28;20490;-77
2023/08/18 12:06:06;;;;;;;15.98;7.80;;;29.40;99.90;;;;;;5165967;28;20030;-77
2023/08/18 12:08:37;;;;;;;19.90;7.75;;;29.30;99.90;;;;;;5166054;28;20033;-77
2023/08/18 12:11:08;;;;;;;19.80;8.63;;;29.20;99.90;;;;;;5165585;28;20110;-77
2023/08/18 12:13:39;;;;;;;20.85;8.82;;;29.20;99.90;;;;;;5165847;28;20058;-79
2023/08/18 12:16:10;;;;;;;24.13;9.23;;;29.10;99.90;;;;;;5148484;28;20351;-77
2023/08/18 12:18:41;;;;;;;21.17;9.23;;;29.00;99.90;;;;;;5165343;28;20034;-79
2023/08/18 12:21:19;;;;;;;21.50;8.90;;;29.10;99.90;;;;;;5148029;28;20061;-77
2023/08/18 12:23:50;;;;;;;20.08;8.68;;;29.10;99.90;;;;;;5165665;28;20034;-77
2023/08/18 16:54:05;;;;;;;21.75;8.30;;;28.60;99.90;;;;;;5221572;28;20443;-76
2023/08/18 16:56:36;;;;;;;18.52;7.88;;;25.70;99.90;;;;;;5202237;28;20539;-77
2023/08/18 16:59:07;;;;;;;23.73;8.50;;;25.70;99.90;;;;;;5193801;28;20107;-79
2023/08/18 17:01:38;;;;;;;23.27;7.90;;;25.70;99.90;;;;;;5197508;28;20033;-76
2023/08/18 17:04:09;;;;;;;25.13;7.75;;;25.70;99.90;;;;;;5193651;28;20469;-78
2023/08/18 17:06:40;;;;;;;23.15;8.13;;;25.70;99.90;;;;;;5194848;28;20037;-76
2023/08/18 17:09:12;;;;;;;20.48;7.25;;;25.60;99.90;;;;;;5194885;28;20423;-76
2023/08/18 17:11:43;;;;;;;21.38;7.63;;;25.50;99.90;;;;;;5190858;28;20386;-76
2023/08/18 17:14:14;;;;;;;24.77;8.65;;;25.60;99.90;;;;;;5192693;28;20033;-75
2023/08/18 17:16:45;;;;;;;25.23;8.20;;;25.40;99.90;;;;;;5192623;28;20030;-76
2023/08/18 17:19:16;;;;;;;23.02;9.50;;;25.60;99.90;;;;;;5195829;28;20377;-77
2023/08/18 17:21:47;;;;;;;20.98;8.63;;;25.50;99.90;;;;;;5195492;28;20128;-78
2023/08/18 17:24:18;;;;;;;20.10;7.53;;;25.40;99.90;;;;;;5197323;28;20018;-76
2023/08/18 17:26:49;;;;;;;23.48;7.97;;;25.40;99.90;;;;;;5200254;28;20436;-76